sensor_id;sensor_type;location;lat;lon;timestamp;P1;durP1;ratioP1;P2;durP2;ratioP2
32146;SDS011;32190;49.112;8.598;2023-02-28T00:01:51;0.75;;;0.75;;
32146;SDS011;32190;49.112;8.598;2023-02-28T00:07:48;0.60;;;0.60;;
32146;SDS011;32190;49.112;8.598;2023-02-28T00:13:41;0.70;;;0.70;;
32146;SDS011;32190;49.112;8.598;2023-02-28T00:19:36;0.60;;;0.60;;
32146;SDS011;32190;49.112;8.598;2023-02-28T00:25:26;0.73;;;0.73;;
32146;SDS011;32190;49.112;8.598;2023-02-28T00:31:17;1.13;;;1.10;;
32146;SDS011;32190;49.112;8.598;2023-02-28T00:37:08;0.80;;;0.80;;
32146;SDS011;32190;49.112;8.598;2023-02-28T00:43:01;1.05;;;0.73;;
32146;SDS011;32190;49.112;8.598;2023-02-28T00:48:53;0.80;;;0.80;;
32146;SDS011;32190;49.112;8.598;2023-02-28T00:54:44;0.70;;;0.70;;
32146;SDS011;32190;49.112;8.598;2023-02-28T01:00:35;0.70;;;0.70;;
32146;SDS011;32190;49.112;8.598;2023-02-28T01:06:25;0.68;;;0.68;;
32146;SDS011;32190;49.112;8.598;2023-02-28T01:12:16;0.93;;;0.93;;
32146;SDS011;32190;49.112;8.598;2023-02-28T01:18:06;0.80;;;0.80;;
32146;SDS011;32190;49.112;8.598;2023-02-28T01:23:57;0.60;;;0.60;;
32146;SDS011;32190;49.112;8.598;2023-02-28T01:29:48;0.70;;;0.70;;
32146;SDS011;32190;49.112;8.598;2023-02-28T01:35:40;0.80;;;0.80;;
32146;SDS011;32190;49.112;8.598;2023-02-28T01:41:32;0.70;;;0.70;;
32146;SDS011;32190;49.112;8.598;2023-02-28T01:47:23;0.63;;;0.63;;
32146;SDS011;32190;49.112;8.598;2023-02-28T01:53:19;1.00;;;0.80;;
32146;SDS011;32190;49.112;8.598;2023-02-28T01:59:21;0.73;;;0.73;;
32146;SDS011;32190;49.112;8.598;2023-02-28T02:05:36;0.90;;;0.90;;
32146;SDS011;32190;49.112;8.598;2023-02-28T02:11:29;0.85;;;0.80;;
32146;SDS011;32190;49.112;8.598;2023-02-28T02:17:26;1.02;;;0.90;;
32146;SDS011;32190;49.112;8.598;2023-02-28T02:23:33;2.10;;;0.77;;
32146;SDS011;32190;49.112;8.598;2023-02-28T02:36:01;1.05;;;1.02;;
32146;SDS011;32190;49.112;8.598;2023-02-28T02:42:15;0.80;;;0.80;;
32146;SDS011;32190;49.112;8.598;2023-02-28T02:54:08;0.80;;;0.80;;
32146;SDS011;32190;49.112;8.598;2023-02-28T03:00:05;1.27;;;1.10;;
32146;SDS011;32190;49.112;8.598;2023-02-28T03:05:59;1.58;;;1.00;;
32146;SDS011;32190;49.112;8.598;2023-02-28T03:11:51;1.13;;;0.90;;
32146;SDS011;32190;49.112;8.598;2023-02-28T03:18:01;1.25;;;1.05;;
32146;SDS011;32190;49.112;8.598;2023-02-28T03:36:09;0.93;;;0.88;;
32146;SDS011;32190;49.112;8.598;2023-02-28T03:42:05;2.42;;;1.08;;
32146;SDS011;32190;49.112;8.598;2023-02-28T03:48:15;1.25;;;1.15;;
32146;SDS011;32190;49.112;8.598;2023-02-28T03:54:22;0.93;;;0.93;;
32146;SDS011;32190;49.112;8.598;2023-02-28T04:00:27;1.70;;;0.95;;
32146;SDS011;32190;49.112;8.598;2023-02-28T04:06:24;1.13;;;1.02;;
32146;SDS011;32190;49.112;8.598;2023-02-28T04:12:14;1.88;;;1.27;;
32146;SDS011;32190;49.112;8.598;2023-02-28T04:18:05;1.40;;;1.30;;
32146;SDS011;32190;49.112;8.598;2023-02-28T04:23:56;0.93;;;0.93;;
32146;SDS011;32190;49.112;8.598;2023-02-28T04:29:50;1.10;;;1.10;;
32146;SDS011;32190;49.112;8.598;2023-02-28T04:35:41;2.00;;;1.80;;
32146;SDS011;32190;49.112;8.598;2023-02-28T04:41:32;1.17;;;1.08;;
32146;SDS011;32190;49.112;8.598;2023-02-28T04:47:26;1.98;;;1.30;;
32146;SDS011;32190;49.112;8.598;2023-02-28T04:53:21;1.50;;;1.40;;
32146;SDS011;32190;49.112;8.598;2023-02-28T04:59:21;1.25;;;1.23;;
32146;SDS011;32190;49.112;8.598;2023-02-28T05:05:14;1.95;;;1.70;;
32146;SDS011;32190;49.112;8.598;2023-02-28T05:11:18;1.60;;;1.50;;
32146;SDS011;32190;49.112;8.598;2023-02-28T05:17:11;1.73;;;1.63;;
32146;SDS011;32190;49.112;8.598;2023-02-28T05:23:01;1.35;;;1.25;;
32146;SDS011;32190;49.112;8.598;2023-02-28T05:28:53;1.45;;;1.35;;
32146;SDS011;32190;49.112;8.598;2023-02-28T05:34:44;2.55;;;1.75;;
32146;SDS011;32190;49.112;8.598;2023-02-28T05:40:34;1.45;;;1.35;;
32146;SDS011;32190;49.112;8.598;2023-02-28T05:46:25;1.40;;;1.30;;
32146;SDS011;32190;49.112;8.598;2023-02-28T05:52:16;1.58;;;1.48;;
32146;SDS011;32190;49.112;8.598;2023-02-28T05:58:06;1.80;;;1.70;;
32146;SDS011;32190;49.112;8.598;2023-02-28T06:03:58;2.03;;;1.58;;
32146;SDS011;32190;49.112;8.598;2023-02-28T06:09:50;1.70;;;1.30;;
32146;SDS011;32190;49.112;8.598;2023-02-28T06:15:40;1.77;;;1.60;;
32146;SDS011;32190;49.112;8.598;2023-02-28T06:21:31;2.75;;;1.70;;
32146;SDS011;32190;49.112;8.598;2023-02-28T06:27:22;1.58;;;1.48;;
32146;SDS011;32190;49.112;8.598;2023-02-28T06:33:13;2.65;;;1.50;;
32146;SDS011;32190;49.112;8.598;2023-02-28T06:39:03;1.52;;;1.42;;
32146;SDS011;32190;49.112;8.598;2023-02-28T06:44:57;1.70;;;1.58;;
32146;SDS011;32190;49.112;8.598;2023-02-28T06:50:47;1.52;;;1.42;;
32146;SDS011;32190;49.112;8.598;2023-02-28T06:56:38;2.05;;;1.85;;
32146;SDS011;32190;49.112;8.598;2023-02-28T07:02:31;5.40;;;3.55;;
32146;SDS011;32190;49.112;8.598;2023-02-28T07:08:25;2.88;;;1.98;;
32146;SDS011;32190;49.112;8.598;2023-02-28T07:14:17;2.10;;;1.80;;
32146;SDS011;32190;49.112;8.598;2023-02-28T07:20:08;2.28;;;1.67;;
32146;SDS011;32190;49.112;8.598;2023-02-28T07:25:59;2.20;;;2.00;;
32146;SDS011;32190;49.112;8.598;2023-02-28T07:31:50;1.95;;;1.85;;
32146;SDS011;32190;49.112;8.598;2023-02-28T07:37:42;1.90;;;1.80;;
32146;SDS011;32190;49.112;8.598;2023-02-28T07:43:33;2.95;;;1.90;;
32146;SDS011;32190;49.112;8.598;2023-02-28T07:49:25;2.45;;;2.25;;
32146;SDS011;32190;49.112;8.598;2023-02-28T07:55:15;2.38;;;2.17;;
32146;SDS011;32190;49.112;8.598;2023-02-28T08:15:10;3.05;;;2.00;;
32146;SDS011;32190;49.112;8.598;2023-02-28T08:21:37;3.47;;;2.20;;
32146;SDS011;32190;49.112;8.598;2023-02-28T08:28:05;2.67;;;2.38;;
32146;SDS011;32190;49.112;8.598;2023-02-28T08:34:08;2.05;;;1.90;;
32146;SDS011;32190;49.112;8.598;2023-02-28T08:40:00;2.53;;;2.33;;
32146;SDS011;32190;49.112;8.598;2023-02-28T08:45:54;4.68;;;2.95;;
32146;SDS011;32190;49.112;8.598;2023-02-28T08:51:49;3.00;;;2.80;;
32146;SDS011;32190;49.112;8.598;2023-02-28T08:57:39;3.80;;;2.92;;
32146;SDS011;32190;49.112;8.598;2023-02-28T09:03:31;4.40;;;2.95;;
32146;SDS011;32190;49.112;8.598;2023-02-28T09:09:47;3.17;;;2.57;;
32146;SDS011;32190;49.112;8.598;2023-02-28T09:15:48;1.77;;;1.67;;
32146;SDS011;32190;49.112;8.598;2023-02-28T09:21:39;4.03;;;3.17;;
32146;SDS011;32190;49.112;8.598;2023-02-28T09:27:42;2.38;;;2.17;;
32146;SDS011;32190;49.112;8.598;2023-02-28T09:33:33;2.47;;;2.28;;
32146;SDS011;32190;49.112;8.598;2023-02-28T09:39:27;2.70;;;2.40;;
32146;SDS011;32190;49.112;8.598;2023-02-28T09:45:31;3.22;;;2.50;;
32146;SDS011;32190;49.112;8.598;2023-02-28T09:57:37;2.10;;;1.88;;
32146;SDS011;32190;49.112;8.598;2023-02-28T10:03:35;2.72;;;2.50;;
32146;SDS011;32190;49.112;8.598;2023-02-28T10:09:31;2.97;;;2.70;;
32146;SDS011;32190;49.112;8.598;2023-02-28T10:15:24;3.38;;;2.92;;
32146;SDS011;32190;49.112;8.598;2023-02-28T10:21:21;3.63;;;2.70;;
32146;SDS011;32190;49.112;8.598;2023-02-28T10:27:19;2.92;;;2.60;;
32146;SDS011;32190;49.112;8.598;2023-02-28T10:33:30;2.97;;;2.70;;
32146;SDS011;32190;49.112;8.598;2023-02-28T10:39:34;2.50;;;2.30;;
32146;SDS011;32190;49.112;8.598;2023-02-28T10:45:36;4.63;;;3.47;;
32146;SDS011;32190;49.112;8.598;2023-02-28T10:51:27;3.30;;;2.58;;
32146;SDS011;32190;49.112;8.598;2023-02-28T10:57:29;3.35;;;2.80;;
32146;SDS011;32190;49.112;8.598;2023-02-28T11:03:33;4.10;;;3.63;;
32146;SDS011;32190;49.112;8.598;2023-02-28T11:09:30;3.53;;;3.22;;
32146;SDS011;32190;49.112;8.598;2023-02-28T11:15:28;3.70;;;3.35;;
32146;SDS011;32190;49.112;8.598;2023-02-28T11:21:22;2.92;;;2.63;;
32146;SDS011;32190;49.112;8.598;2023-02-28T11:33:23;5.90;;;2.97;;
32146;SDS011;32190;49.112;8.598;2023-02-28T11:39:40;3.38;;;2.70;;
32146;SDS011;32190;49.112;8.598;2023-02-28T11:45:38;3.45;;;2.90;;
32146;SDS011;32190;49.112;8.598;2023-02-28T11:57:44;4.35;;;2.58;;
32146;SDS011;32190;49.112;8.598;2023-02-28T12:03:45;4.25;;;3.20;;
32146;SDS011;32190;49.112;8.598;2023-02-28T12:10:20;4.85;;;4.28;;
32146;SDS011;32190;49.112;8.598;2023-02-28T12:35:14;3.30;;;2.85;;
32146;SDS011;32190;49.112;8.598;2023-02-28T12:41:11;2.70;;;2.50;;
32146;SDS011;32190;49.112;8.598;2023-02-28T12:47:15;3.45;;;3.15;;
32146;SDS011;32190;49.112;8.598;2023-02-28T12:53:12;5.38;;;3.45;;
32146;SDS011;32190;49.112;8.598;2023-02-28T13:50:14;4.32;;;3.67;;
32146;SDS011;32190;49.112;8.598;2023-02-28T13:56:07;4.82;;;3.85;;
32146;SDS011;32190;49.112;8.598;2023-02-28T14:08:34;3.58;;;3.05;;
32146;SDS011;32190;49.112;8.598;2023-02-28T14:20:30;4.22;;;3.67;;
32146;SDS011;32190;49.112;8.598;2023-02-28T14:27:05;4.20;;;3.78;;
32146;SDS011;32190;49.112;8.598;2023-02-28T14:39:13;5.07;;;3.55;;
32146;SDS011;32190;49.112;8.598;2023-02-28T14:45:05;4.15;;;3.75;;
32146;SDS011;32190;49.112;8.598;2023-02-28T14:51:02;5.75;;;5.20;;
32146;SDS011;32190;49.112;8.598;2023-02-28T15:04:26;5.37;;;4.70;;
32146;SDS011;32190;49.112;8.598;2023-02-28T15:10:32;4.90;;;4.18;;
32146;SDS011;32190;49.112;8.598;2023-02-28T15:17:01;4.50;;;4.10;;
32146;SDS011;32190;49.112;8.598;2023-02-28T15:22:58;5.07;;;4.60;;
32146;SDS011;32190;49.112;8.598;2023-02-28T15:42:57;3.83;;;3.47;;
32146;SDS011;32190;49.112;8.598;2023-02-28T16:09:44;4.00;;;3.30;;
32146;SDS011;32190;49.112;8.598;2023-02-28T16:15:37;3.65;;;3.25;;
32146;SDS011;32190;49.112;8.598;2023-02-28T16:21:41;3.83;;;3.13;;
32146;SDS011;32190;49.112;8.598;2023-02-28T16:27:32;4.55;;;4.00;;
32146;SDS011;32190;49.112;8.598;2023-02-28T16:33:27;4.03;;;2.95;;
32146;SDS011;32190;49.112;8.598;2023-02-28T16:39:36;3.97;;;2.85;;
32146;SDS011;32190;49.112;8.598;2023-02-28T16:46:10;3.00;;;2.70;;
32146;SDS011;32190;49.112;8.598;2023-02-28T16:52:34;2.75;;;2.53;;
32146;SDS011;32190;49.112;8.598;2023-02-28T16:58:37;2.58;;;2.38;;
32146;SDS011;32190;49.112;8.598;2023-02-28T17:05:02;2.58;;;2.38;;
32146;SDS011;32190;49.112;8.598;2023-02-28T17:11:41;3.50;;;3.20;;
32146;SDS011;32190;49.112;8.598;2023-02-28T17:17:32;2.75;;;2.38;;
32146;SDS011;32190;49.112;8.598;2023-02-28T17:23:23;3.97;;;3.05;;
32146;SDS011;32190;49.112;8.598;2023-02-28T17:35:53;3.10;;;2.67;;
32146;SDS011;32190;49.112;8.598;2023-02-28T17:41:53;3.42;;;2.92;;
32146;SDS011;32190;49.112;8.598;2023-02-28T17:47:45;3.95;;;2.30;;
32146;SDS011;32190;49.112;8.598;2023-02-28T17:53:37;3.05;;;2.75;;
32146;SDS011;32190;49.112;8.598;2023-02-28T17:59:31;3.40;;;2.78;;
32146;SDS011;32190;49.112;8.598;2023-02-28T18:05:24;2.97;;;2.42;;
32146;SDS011;32190;49.112;8.598;2023-02-28T18:11:15;3.55;;;2.85;;
32146;SDS011;32190;49.112;8.598;2023-02-28T18:17:09;3.35;;;2.70;;
32146;SDS011;32190;49.112;8.598;2023-02-28T18:23:02;2.35;;;2.15;;
32146;SDS011;32190;49.112;8.598;2023-02-28T18:28:56;2.83;;;2.42;;
32146;SDS011;32190;49.112;8.598;2023-02-28T18:34:46;2.70;;;2.50;;
32146;SDS011;32190;49.112;8.598;2023-02-28T18:40:37;2.55;;;2.35;;
32146;SDS011;32190;49.112;8.598;2023-02-28T18:46:28;3.58;;;2.40;;
32146;SDS011;32190;49.112;8.598;2023-02-28T18:52:18;2.80;;;2.60;;
32146;SDS011;32190;49.112;8.598;2023-02-28T18:58:09;3.60;;;2.35;;
32146;SDS011;32190;49.112;8.598;2023-02-28T19:04:03;2.55;;;2.35;;
32146;SDS011;32190;49.112;8.598;2023-02-28T19:09:54;2.60;;;2.38;;
32146;SDS011;32190;49.112;8.598;2023-02-28T19:15:45;3.22;;;2.22;;
32146;SDS011;32190;49.112;8.598;2023-02-28T19:21:38;2.83;;;2.63;;
32146;SDS011;32190;49.112;8.598;2023-02-28T19:27:28;3.30;;;2.33;;
32146;SDS011;32190;49.112;8.598;2023-02-28T19:33:19;2.97;;;2.55;;
32146;SDS011;32190;49.112;8.598;2023-02-28T19:45:52;2.10;;;1.98;;
32146;SDS011;32190;49.112;8.598;2023-02-28T19:58:54;2.33;;;2.13;;
32146;SDS011;32190;49.112;8.598;2023-02-28T20:04:53;2.58;;;2.30;;
32146;SDS011;32190;49.112;8.598;2023-02-28T20:10:49;1.98;;;1.77;;
32146;SDS011;32190;49.112;8.598;2023-02-28T20:16:50;2.50;;;2.30;;
32146;SDS011;32190;49.112;8.598;2023-02-28T20:23:24;2.65;;;2.45;;
32146;SDS011;32190;49.112;8.598;2023-02-28T20:29:20;3.75;;;2.70;;
32146;SDS011;32190;49.112;8.598;2023-02-28T20:35:16;2.70;;;2.50;;
32146;SDS011;32190;49.112;8.598;2023-02-28T20:41:06;2.40;;;2.20;;
32146;SDS011;32190;49.112;8.598;2023-02-28T20:46:59;2.88;;;2.63;;
32146;SDS011;32190;49.112;8.598;2023-02-28T20:59:19;3.38;;;2.45;;
32146;SDS011;32190;49.112;8.598;2023-02-28T21:05:22;2.42;;;2.22;;
32146;SDS011;32190;49.112;8.598;2023-02-28T21:11:21;2.30;;;2.10;;
32146;SDS011;32190;49.112;8.598;2023-02-28T21:17:14;2.13;;;1.98;;
32146;SDS011;32190;49.112;8.598;2023-02-28T21:23:05;2.63;;;2.35;;
32146;SDS011;32190;49.112;8.598;2023-02-28T21:28:58;2.60;;;2.40;;
32146;SDS011;32190;49.112;8.598;2023-02-28T21:34:50;3.03;;;2.70;;
32146;SDS011;32190;49.112;8.598;2023-02-28T21:40:43;2.65;;;2.40;;
32146;SDS011;32190;49.112;8.598;2023-02-28T21:46:33;2.22;;;2.05;;
32146;SDS011;32190;49.112;8.598;2023-02-28T21:52:24;2.30;;;2.10;;
32146;SDS011;32190;49.112;8.598;2023-02-28T21:58:15;2.38;;;1.95;;
32146;SDS011;32190;49.112;8.598;2023-02-28T22:04:07;3.05;;;2.35;;
32146;SDS011;32190;49.112;8.598;2023-02-28T22:09:59;4.15;;;2.67;;
32146;SDS011;32190;49.112;8.598;2023-02-28T22:15:49;2.33;;;2.13;;
32146;SDS011;32190;49.112;8.598;2023-02-28T22:21:40;2.67;;;2.03;;
32146;SDS011;32190;49.112;8.598;2023-02-28T22:27:30;2.47;;;2.03;;
32146;SDS011;32190;49.112;8.598;2023-02-28T22:33:23;2.17;;;1.88;;
32146;SDS011;32190;49.112;8.598;2023-02-28T22:39:14;1.90;;;1.80;;
32146;SDS011;32190;49.112;8.598;2023-02-28T22:45:05;2.60;;;2.38;;
32146;SDS011;32190;49.112;8.598;2023-02-28T22:51:03;2.70;;;2.45;;
32146;SDS011;32190;49.112;8.598;2023-02-28T22:56:55;2.40;;;2.20;;
32146;SDS011;32190;49.112;8.598;2023-02-28T23:02:46;2.33;;;2.13;;
32146;SDS011;32190;49.112;8.598;2023-02-28T23:08:37;2.42;;;2.22;;
32146;SDS011;32190;49.112;8.598;2023-02-28T23:14:27;1.83;;;1.73;;
32146;SDS011;32190;49.112;8.598;2023-02-28T23:20:19;2.92;;;2.47;;
32146;SDS011;32190;49.112;8.598;2023-02-28T23:26:10;2.95;;;2.28;;
32146;SDS011;32190;49.112;8.598;2023-02-28T23:32:01;2.58;;;2.22;;
32146;SDS011;32190;49.112;8.598;2023-02-28T23:37:52;2.13;;;1.92;;
32146;SDS011;32190;49.112;8.598;2023-02-28T23:43:46;2.65;;;2.22;;
32146;SDS011;32190;49.112;8.598;2023-02-28T23:49:37;2.45;;;2.25;;
32146;SDS011;32190;49.112;8.598;2023-02-28T23:55:27;3.30;;;2.55;;
